createdAt,value
2018-06-14T00:00:07.929Z,22.60
2018-06-14T00:00:39.106Z,22.61
2018-06-14T00:01:10.278Z,22.60
2018-06-14T00:01:41.448Z,22.58
2018-06-14T00:02:12.670Z,22.56
2018-06-14T00:02:43.914Z,22.54
2018-06-14T00:03:15.198Z,22.54
2018-06-14T00:03:46.426Z,22.53
2018-06-14T00:04:17.616Z,22.51
2018-06-14T00:04:48.805Z,22.48
2018-06-14T00:05:19.969Z,22.45
2018-06-14T00:05:51.194Z,22.43
2018-06-14T00:06:22.378Z,22.40
2018-06-14T00:06:53.654Z,22.39
2018-06-14T00:07:24.838Z,22.41
2018-06-14T00:07:56.071Z,22.43
2018-06-14T00:08:27.284Z,22.43
2018-06-14T00:08:58.455Z,22.43
2018-06-14T00:10:12.715Z,22.50
2018-06-14T00:10:43.934Z,22.52
2018-06-14T00:11:15.153Z,22.53
2018-06-14T00:11:46.389Z,22.54
2018-06-14T00:12:17.616Z,22.53
2018-06-14T00:12:48.897Z,22.49
2018-06-14T00:13:20.082Z,22.48
2018-06-14T00:13:51.245Z,22.52
2018-06-14T00:14:22.412Z,22.55
2018-06-14T00:14:53.592Z,22.57
2018-06-14T00:15:24.797Z,22.56
2018-06-14T00:15:56.022Z,22.56
2018-06-14T00:16:27.236Z,22.55
2018-06-14T00:16:58.455Z,22.53
2018-06-14T00:17:29.637Z,22.53
2018-06-14T00:18:00.936Z,22.54
2018-06-14T00:18:32.115Z,22.54
2018-06-14T00:19:03.304Z,22.53
2018-06-14T00:19:34.485Z,22.55
2018-06-14T00:20:05.671Z,22.57
2018-06-14T00:20:36.900Z,22.57
2018-06-14T00:21:08.069Z,22.59
2018-06-14T00:21:39.232Z,22.60
2018-06-14T00:22:10.458Z,22.57
2018-06-14T00:22:41.635Z,22.57
2018-06-14T00:23:12.901Z,22.58
2018-06-14T00:23:44.085Z,22.59
2018-06-14T00:24:15.257Z,22.56
2018-06-14T00:24:46.448Z,22.57
2018-06-14T00:25:17.625Z,22.59
2018-06-14T00:25:48.789Z,22.61
2018-06-14T00:26:20.011Z,22.58
2018-06-14T00:26:51.189Z,22.61
2018-06-14T00:27:22.461Z,22.63
2018-06-14T00:27:53.640Z,22.64
2018-06-14T00:28:24.816Z,22.64
2018-06-14T00:28:56.038Z,22.67
2018-06-14T00:29:27.212Z,22.68
2018-06-14T00:29:58.450Z,22.70
2018-06-14T00:30:29.696Z,22.69
2018-06-14T00:31:00.911Z,22.65
2018-06-14T00:31:32.092Z,22.64
2018-06-14T00:32:03.313Z,22.63
2018-06-14T00:32:34.593Z,22.61
2018-06-14T00:33:05.820Z,22.59
2018-06-14T00:33:37.061Z,22.57
2018-06-14T00:34:08.527Z,22.58
2018-06-14T00:34:39.705Z,22.57
2018-06-14T00:35:10.924Z,22.55
2018-06-14T00:35:42.190Z,22.49
2018-06-14T00:36:13.364Z,22.48
2018-06-14T00:36:44.576Z,22.44
2018-06-14T00:37:15.744Z,22.39
2018-06-14T00:37:46.912Z,22.36
2018-06-14T00:38:18.106Z,22.33
2018-06-14T00:38:49.333Z,22.28
2018-06-14T00:39:20.510Z,22.27
2018-06-14T00:39:51.680Z,22.23
2018-06-14T00:40:22.927Z,22.23
2018-06-14T00:40:54.121Z,22.22
2018-06-14T00:41:25.343Z,22.25
2018-06-14T00:41:56.592Z,22.28
2018-06-14T00:42:27.764Z,22.31
2018-06-14T00:42:58.928Z,22.32
2018-06-14T00:43:30.155Z,22.32
2018-06-14T00:44:01.423Z,22.28
2018-06-14T00:44:32.675Z,22.26
2018-06-14T00:45:03.857Z,22.21
2018-06-14T00:45:35.033Z,22.17
2018-06-14T00:46:06.208Z,22.15
2018-06-14T00:46:37.371Z,22.13
2018-06-14T00:47:08.537Z,22.12
2018-06-14T00:47:39.728Z,22.16
2018-06-14T00:48:10.899Z,22.17
2018-06-14T00:48:42.125Z,22.20
2018-06-14T00:49:13.385Z,22.22
2018-06-14T00:49:44.561Z,22.23
2018-06-14T00:50:15.732Z,22.23
2018-06-14T00:50:46.916Z,22.23
2018-06-14T00:51:18.144Z,22.21
2018-06-14T00:51:49.364Z,22.20
2018-06-14T00:52:20.523Z,22.19
2018-06-14T00:52:51.705Z,22.19
2018-06-14T00:53:22.925Z,22.19
2018-06-14T00:53:54.197Z,22.18
2018-06-14T00:54:25.412Z,22.20
2018-06-14T00:54:56.593Z,22.21
2018-06-14T00:55:27.779Z,22.22
2018-06-14T00:55:59.060Z,22.20
2018-06-14T00:56:30.237Z,22.20
2018-06-14T00:57:01.466Z,22.21
2018-06-14T00:57:32.637Z,22.21
2018-06-14T00:58:03.873Z,22.20
2018-06-14T00:58:35.072Z,22.20
2018-06-14T00:59:06.259Z,22.21
2018-06-14T00:59:37.521Z,22.23
2018-06-14T01:00:08.751Z,22.25
2018-06-14T01:00:39.929Z,22.28
2018-06-14T01:01:11.257Z,22.31
2018-06-14T01:01:42.441Z,22.32
2018-06-14T01:02:13.707Z,22.35
2018-06-14T01:02:44.884Z,22.37
2018-06-14T01:03:16.069Z,22.38
2018-06-14T01:03:47.254Z,22.40
2018-06-14T01:04:18.424Z,22.42
2018-06-14T01:04:49.628Z,22.43
2018-06-14T01:05:20.802Z,22.43
2018-06-14T01:05:51.972Z,22.46
2018-06-14T01:06:23.245Z,22.49
2018-06-14T01:06:54.510Z,22.53
2018-06-14T01:07:25.690Z,22.56
2018-06-14T01:07:56.900Z,22.58
2018-06-14T01:08:28.065Z,22.46
2018-06-14T01:08:59.316Z,22.61
2018-06-14T01:09:30.489Z,22.66
2018-06-14T01:10:01.665Z,22.64
2018-06-14T01:10:32.889Z,22.65
2018-06-14T01:11:04.138Z,22.70
2018-06-14T01:11:35.332Z,22.72
2018-06-14T01:12:06.556Z,22.74
2018-06-14T01:12:37.740Z,22.73
2018-06-14T01:13:08.952Z,22.72
2018-06-14T01:13:41.169Z,22.71
2018-06-14T01:14:12.403Z,22.72
2018-06-14T01:14:43.584Z,22.73
2018-06-14T01:15:14.801Z,22.72
2018-06-14T01:15:46.033Z,22.74
2018-06-14T01:16:17.222Z,22.74
2018-06-14T01:16:48.403Z,22.73
2018-06-14T01:17:20.476Z,22.70
2018-06-14T01:17:51.648Z,22.67
2018-06-14T01:18:22.856Z,22.65
2018-06-14T01:18:54.078Z,22.65
2018-06-14T01:19:25.254Z,22.67
2018-06-14T01:19:56.433Z,22.67
2018-06-14T01:20:27.683Z,22.68
2018-06-14T01:20:58.958Z,22.69
2018-06-14T01:21:30.204Z,22.71
2018-06-14T01:22:01.473Z,22.70
2018-06-14T01:22:32.673Z,22.71
2018-06-14T01:23:03.883Z,22.68
2018-06-14T01:23:35.076Z,22.65
2018-06-14T01:24:06.308Z,22.61
2018-06-14T01:24:37.484Z,22.60
2018-06-14T01:25:08.676Z,22.59
2018-06-14T01:25:39.891Z,22.56
2018-06-14T01:26:11.156Z,22.55
2018-06-14T01:26:42.397Z,22.52
2018-06-14T01:27:13.585Z,22.49
2018-06-14T01:27:44.801Z,22.48
2018-06-14T01:28:15.987Z,22.51
2018-06-14T01:28:47.265Z,22.52
2018-06-14T01:29:18.446Z,22.54
2018-06-14T01:29:49.649Z,22.56
2018-06-14T01:30:20.816Z,22.58
2018-06-14T01:30:51.997Z,22.57
2018-06-14T01:31:23.261Z,22.56
2018-06-14T01:31:54.432Z,22.57
2018-06-14T01:32:25.600Z,22.57
2018-06-14T01:32:56.767Z,22.57
2018-06-14T01:33:27.940Z,22.59
2018-06-14T01:33:59.144Z,22.60
2018-06-14T01:34:30.313Z,22.60
2018-06-14T01:35:32.489Z,22.61
2018-06-14T01:36:03.664Z,22.62
2018-06-14T01:36:34.913Z,22.61
2018-06-14T01:37:06.133Z,22.60
2018-06-14T01:37:37.364Z,22.58
2018-06-14T01:38:08.576Z,22.52
2018-06-14T01:38:39.796Z,22.45
2018-06-14T01:39:11.047Z,22.37
2018-06-14T01:39:42.229Z,22.25
2018-06-14T01:40:13.400Z,22.16
2018-06-14T01:40:44.624Z,22.07
2018-06-14T01:41:15.801Z,21.96
2018-06-14T01:41:46.985Z,21.83
2018-06-14T01:42:18.213Z,21.71
2018-06-14T01:42:49.417Z,21.57
2018-06-14T01:43:20.593Z,21.51
2018-06-14T01:43:51.769Z,21.45
2018-06-14T01:44:23.005Z,21.41
2018-06-14T01:44:54.257Z,21.35
2018-06-14T01:45:25.436Z,21.29
2018-06-14T01:45:56.609Z,21.22
2018-06-14T01:46:27.831Z,21.18
2018-06-14T01:46:59.069Z,21.13
2018-06-14T01:47:30.288Z,21.10
2018-06-14T01:48:01.461Z,21.04
2018-06-14T01:48:32.636Z,20.98
2018-06-14T01:49:03.881Z,20.91
2018-06-14T01:49:35.060Z,20.84
2018-06-14T01:50:06.294Z,20.76
2018-06-14T01:50:37.472Z,20.67
2018-06-14T01:51:08.642Z,20.63
2018-06-14T01:51:39.812Z,20.58
2018-06-14T01:52:10.994Z,20.52
2018-06-14T01:52:42.245Z,20.48
2018-06-14T01:53:13.473Z,20.43
2018-06-14T01:53:44.651Z,20.35
2018-06-14T01:54:15.927Z,20.32
2018-06-14T01:54:47.204Z,20.27
2018-06-14T01:55:18.378Z,20.24
2018-06-14T01:55:49.545Z,20.20
2018-06-14T01:56:20.726Z,20.14
2018-06-14T01:56:51.925Z,20.10
2018-06-14T01:57:23.138Z,20.05
2018-06-14T01:57:54.383Z,20.03
2018-06-14T01:58:25.569Z,20.01
2018-06-14T01:58:56.804Z,20.00
2018-06-14T01:59:28.058Z,20.00
2018-06-14T01:59:59.497Z,19.98
2018-06-14T02:00:30.684Z,19.94
2018-06-14T02:01:01.872Z,19.94
2018-06-14T02:01:33.141Z,19.95
2018-06-14T02:02:04.387Z,19.99
2018-06-14T02:02:35.569Z,20.01
2018-06-14T02:03:06.788Z,20.03
2018-06-14T02:03:37.964Z,20.02
2018-06-14T02:04:09.152Z,20.04
2018-06-14T02:04:40.373Z,20.06
2018-06-14T02:05:11.649Z,20.07
2018-06-14T02:05:42.842Z,20.08
2018-06-14T02:06:14.072Z,20.11
2018-06-14T02:06:45.343Z,20.11
2018-06-14T02:07:16.545Z,20.12
2018-06-14T02:07:47.769Z,20.10
2018-06-14T02:08:18.951Z,20.09
2018-06-14T02:08:50.199Z,20.07
2018-06-14T02:09:21.412Z,20.05
2018-06-14T02:09:52.669Z,20.06
2018-06-14T02:10:24.046Z,20.04
2018-06-14T02:10:55.228Z,20.04
2018-06-14T02:11:26.404Z,20.00
2018-06-14T02:11:57.648Z,20.01
2018-06-14T02:12:28.873Z,19.97
2018-06-14T02:13:00.049Z,19.94
2018-06-14T02:13:31.233Z,19.92
2018-06-14T02:14:02.412Z,19.88
2018-06-14T02:14:33.652Z,19.87
2018-06-14T02:15:04.888Z,19.85
2018-06-14T02:15:36.108Z,19.82
2018-06-14T02:16:07.286Z,19.80
2018-06-14T02:16:38.517Z,19.82
2018-06-14T02:17:10.723Z,19.84
2018-06-14T02:17:41.907Z,19.86
2018-06-14T02:18:13.124Z,19.85
2018-06-14T02:18:44.301Z,19.88
2018-06-14T02:19:15.484Z,19.89
2018-06-14T02:19:46.716Z,19.88
2018-06-14T02:20:17.961Z,19.91
2018-06-14T02:20:49.209Z,19.90
2018-06-14T02:21:20.470Z,19.92
2018-06-14T02:21:51.690Z,19.93
2018-06-14T02:22:22.872Z,19.95
2018-06-14T02:22:54.108Z,19.97
2018-06-14T02:23:25.305Z,20.00
2018-06-14T02:23:56.531Z,20.04
2018-06-14T02:24:27.785Z,20.08
2018-06-14T02:24:59.034Z,20.11
2018-06-14T02:25:30.215Z,20.12
2018-06-14T02:26:01.468Z,20.14
2018-06-14T02:26:32.716Z,20.18
2018-06-14T02:27:03.901Z,20.19
2018-06-14T02:27:35.119Z,20.20
2018-06-14T02:28:06.296Z,20.18
2018-06-14T02:28:37.533Z,20.18
2018-06-14T02:29:08.713Z,20.22
2018-06-14T02:29:39.933Z,20.24
2018-06-14T02:30:11.165Z,20.26
2018-06-14T02:30:42.362Z,20.25
2018-06-14T02:31:13.592Z,20.26
2018-06-14T02:31:44.837Z,20.27
2018-06-14T02:32:16.033Z,20.27
2018-06-14T02:32:47.220Z,20.25
2018-06-14T02:33:18.418Z,20.23
2018-06-14T02:33:49.593Z,20.22
2018-06-14T02:34:20.768Z,20.21
2018-06-14T02:34:51.968Z,20.21
2018-06-14T02:35:23.201Z,20.22
2018-06-14T02:35:54.389Z,20.21
2018-06-14T02:36:25.606Z,20.22
2018-06-14T02:36:56.790Z,20.20
2018-06-14T02:37:27.982Z,20.19
2018-06-14T02:37:59.154Z,20.21
2018-06-14T02:38:30.393Z,20.20
2018-06-14T02:39:01.629Z,20.22
2018-06-14T02:39:32.827Z,20.20
2018-06-14T02:40:04.014Z,20.20
2018-06-14T02:40:35.195Z,20.20
2018-06-14T02:41:06.383Z,20.22
2018-06-14T02:41:37.649Z,20.23
2018-06-14T02:42:08.877Z,20.22
2018-06-14T02:42:40.089Z,20.24
2018-06-14T02:43:11.319Z,20.22
2018-06-14T02:43:42.549Z,20.22
2018-06-14T02:44:13.738Z,20.21
2018-06-14T02:44:44.983Z,20.19
2018-06-14T02:45:16.181Z,20.18
2018-06-14T02:45:47.362Z,20.16
2018-06-14T02:46:18.585Z,20.14
2018-06-14T02:46:49.813Z,20.13
2018-06-14T02:47:20.992Z,20.15
2018-06-14T02:47:52.189Z,20.16
2018-06-14T02:48:23.366Z,20.18
2018-06-14T02:48:54.584Z,20.20
2018-06-14T02:49:25.771Z,20.22
2018-06-14T02:49:57.045Z,20.23
2018-06-14T02:50:28.233Z,20.23
2018-06-14T02:50:59.418Z,20.21
2018-06-14T02:51:30.597Z,20.21
2018-06-14T02:52:01.801Z,20.19
2018-06-14T02:52:33.061Z,20.18
2018-06-14T02:53:04.280Z,20.15
2018-06-14T02:53:35.505Z,20.14
2018-06-14T02:54:06.747Z,20.12
2018-06-14T02:54:38.007Z,20.12
2018-06-14T02:55:09.253Z,18.31
2018-06-14T02:55:40.432Z,20.11
2018-06-14T02:56:11.656Z,20.13
2018-06-14T02:56:42.985Z,16.70
2018-06-14T02:57:14.178Z,20.14
2018-06-14T02:57:45.388Z,20.14
2018-06-14T02:58:16.621Z,20.16
2018-06-14T02:58:47.826Z,20.20
2018-06-14T02:59:19.026Z,20.22
2018-06-14T02:59:50.265Z,20.23
2018-06-14T03:00:21.460Z,20.24
2018-06-14T03:00:52.645Z,20.24
2018-06-14T03:01:23.821Z,20.27
2018-06-14T03:01:55.041Z,20.28
2018-06-14T03:02:26.354Z,20.31
2018-06-14T03:02:57.553Z,20.35
2018-06-14T03:03:29.130Z,20.37
2018-06-14T03:04:00.325Z,20.38
2018-06-14T03:04:31.543Z,20.39
2018-06-14T03:05:02.729Z,20.38
2018-06-14T03:05:33.913Z,20.38
2018-06-14T03:06:05.137Z,20.37
2018-06-14T03:06:36.369Z,20.37
2018-06-14T03:07:07.648Z,20.39
2018-06-14T03:07:38.849Z,20.40
2018-06-14T03:08:10.027Z,20.43
2018-06-14T03:08:41.205Z,20.44
2018-06-14T03:09:12.445Z,20.48
2018-06-14T03:09:43.629Z,20.51
2018-06-14T03:10:14.886Z,20.53
2018-06-14T03:10:46.397Z,20.57
2018-06-14T03:11:17.632Z,20.61
2018-06-14T03:11:48.822Z,20.62
2018-06-14T03:12:20.954Z,20.63
2018-06-14T03:12:52.140Z,20.64
2018-06-14T03:13:23.609Z,20.64
2018-06-14T03:13:59.542Z,20.67
2018-06-14T03:14:30.733Z,20.66
2018-06-14T03:15:01.979Z,20.67
2018-06-14T03:15:34.265Z,20.65
2018-06-14T03:16:05.493Z,20.65
2018-06-14T03:16:36.745Z,20.63
2018-06-14T03:17:07.997Z,20.63
2018-06-14T03:17:39.237Z,20.65
2018-06-14T03:18:10.432Z,20.65
2018-06-14T03:18:41.669Z,20.64
2018-06-14T03:19:12.860Z,20.63
2018-06-14T03:19:44.041Z,20.61
2018-06-14T03:20:15.217Z,20.58
2018-06-14T03:20:46.457Z,20.54
2018-06-14T03:21:17.630Z,20.49
2018-06-14T03:21:48.851Z,20.46
2018-06-14T03:22:20.060Z,20.45
2018-06-14T03:22:51.240Z,20.42
2018-06-14T03:23:22.481Z,20.43
2018-06-14T03:23:53.673Z,20.46
2018-06-14T03:24:24.848Z,20.47
2018-06-14T03:24:56.029Z,20.48
2018-06-14T03:25:27.257Z,20.47
2018-06-14T03:25:58.590Z,20.45
2018-06-14T03:26:29.821Z,20.43
2018-06-14T03:27:01.004Z,20.44
2018-06-14T03:27:32.185Z,20.45
2018-06-14T03:28:03.369Z,20.45
2018-06-14T03:28:34.561Z,20.45
2018-06-14T03:29:05.744Z,20.44
2018-06-14T03:29:36.975Z,20.44
2018-06-14T03:30:08.159Z,20.47
2018-06-14T03:30:39.346Z,20.47
2018-06-14T03:31:10.561Z,20.50
2018-06-14T03:31:41.744Z,20.53
2018-06-14T03:32:12.972Z,20.50
2018-06-14T03:32:44.165Z,20.47
2018-06-14T03:33:15.395Z,20.44
2018-06-14T03:33:46.604Z,20.44
2018-06-14T03:34:17.830Z,20.38
2018-06-14T03:34:49.017Z,20.29
2018-06-14T03:35:20.285Z,20.26
2018-06-14T03:35:51.521Z,20.23
2018-06-14T03:36:22.722Z,20.20
2018-06-14T03:36:53.961Z,20.20
2018-06-14T03:37:25.189Z,20.21
2018-06-14T03:37:56.380Z,20.21
2018-06-14T03:38:27.560Z,20.21
2018-06-14T03:38:58.739Z,20.24
2018-06-14T03:39:29.922Z,20.25
2018-06-14T03:40:01.120Z,20.26
2018-06-14T03:40:32.338Z,20.27
2018-06-14T03:41:03.563Z,20.26
2018-06-14T03:41:34.765Z,20.26
2018-06-14T03:42:05.947Z,20.26
2018-06-14T03:42:37.138Z,20.28
2018-06-14T03:43:08.369Z,20.29
2018-06-14T03:43:39.601Z,20.29
2018-06-14T03:44:10.807Z,20.31
2018-06-14T03:44:42.041Z,20.30
2018-06-14T03:45:13.278Z,20.30
2018-06-14T03:45:45.002Z,20.31
2018-06-14T03:46:16.186Z,20.30
2018-06-14T03:46:47.391Z,20.29
2018-06-14T03:47:18.581Z,20.28
2018-06-14T03:47:49.808Z,20.29
2018-06-14T03:48:21.047Z,20.28
2018-06-14T03:48:52.228Z,20.29
2018-06-14T03:49:23.457Z,20.29
2018-06-14T03:49:54.640Z,20.32
2018-06-14T03:50:25.818Z,20.33
2018-06-14T03:50:57.003Z,20.35
2018-06-14T03:51:28.196Z,20.35
2018-06-14T03:51:59.467Z,20.32
2018-06-14T03:52:30.649Z,20.28
2018-06-14T03:53:01.840Z,20.25
2018-06-14T03:53:33.117Z,20.23
2018-06-14T03:54:04.402Z,20.23
2018-06-14T03:54:35.637Z,20.22
2018-06-14T03:55:06.839Z,20.20
2018-06-14T03:55:38.091Z,20.19
2018-06-14T03:56:09.325Z,20.16
2018-06-14T03:56:40.509Z,20.15
2018-06-14T03:57:11.677Z,20.15
2018-06-14T03:57:42.852Z,20.15
2018-06-14T03:58:14.089Z,20.13
2018-06-14T03:58:45.281Z,20.13
2018-06-14T03:59:16.492Z,20.12
2018-06-14T03:59:47.720Z,20.10
2018-06-14T04:00:18.911Z,20.10
2018-06-14T04:00:50.263Z,20.11
2018-06-14T04:01:21.438Z,20.11
2018-06-14T04:01:52.722Z,20.11
2018-06-14T04:02:23.965Z,20.10
2018-06-14T04:02:55.165Z,20.12
2018-06-14T04:03:26.353Z,20.15
2018-06-14T04:03:57.581Z,20.20
2018-06-14T04:04:28.753Z,20.23
2018-06-14T04:04:59.983Z,20.27
2018-06-14T04:05:31.254Z,20.31
2018-06-14T04:06:02.436Z,20.32
2018-06-14T04:06:33.618Z,20.31
2018-06-14T04:07:04.794Z,20.28
2018-06-14T04:07:36.062Z,20.26
2018-06-14T04:08:07.248Z,20.26
2018-06-14T04:08:38.468Z,20.23
2018-06-14T04:09:09.652Z,20.24
2018-06-14T04:09:40.827Z,20.21
2018-06-14T04:10:12.100Z,20.23
2018-06-14T04:10:43.331Z,20.25
2018-06-14T04:11:14.528Z,20.28
2018-06-14T04:11:45.723Z,20.28
2018-06-14T04:12:16.909Z,20.33
2018-06-14T04:12:48.146Z,20.32
2018-06-14T04:13:19.334Z,20.34
2018-06-14T04:13:50.565Z,20.39
2018-06-14T04:14:21.775Z,20.40
2018-06-14T04:14:53.066Z,20.43
2018-06-14T04:15:24.248Z,20.43
2018-06-14T04:15:55.439Z,20.45
2018-06-14T04:16:26.671Z,20.47
2018-06-14T04:16:59.096Z,20.50
2018-06-14T04:17:30.268Z,20.54
2018-06-14T04:18:01.440Z,20.57
2018-06-14T04:18:32.643Z,20.64
2018-06-14T04:19:03.828Z,20.64
2018-06-14T04:19:35.045Z,20.64
2018-06-14T04:20:06.320Z,20.64
2018-06-14T04:20:37.505Z,20.68
2018-06-14T04:21:08.680Z,20.55
2018-06-14T04:21:39.906Z,20.72
2018-06-14T04:22:11.094Z,20.73
2018-06-14T04:22:42.268Z,20.74
2018-06-14T04:23:13.457Z,20.75
2018-06-14T04:23:44.637Z,20.80
2018-06-14T04:24:15.875Z,20.82
2018-06-14T04:24:47.103Z,20.86
2018-06-14T04:25:18.289Z,20.88
2018-06-14T04:25:49.472Z,20.89
2018-06-14T04:26:20.705Z,20.92
2018-06-14T04:26:51.889Z,20.94
2018-06-14T04:27:23.115Z,20.96
2018-06-14T04:27:54.393Z,21.00
2018-06-14T04:28:25.569Z,21.03
2018-06-14T04:28:56.794Z,21.08
2018-06-14T04:29:27.971Z,21.11
2018-06-14T04:29:59.146Z,21.13
2018-06-14T04:30:30.369Z,21.14
2018-06-14T04:31:01.606Z,21.18
2018-06-14T04:31:32.793Z,21.20
2018-06-14T04:32:03.969Z,21.22
2018-06-14T04:32:35.253Z,21.25
2018-06-14T04:33:06.425Z,21.28
2018-06-14T04:33:37.641Z,21.33
2018-06-14T04:34:08.826Z,21.38
2018-06-14T04:34:40.025Z,21.40
2018-06-14T04:35:11.244Z,21.42
2018-06-14T04:35:42.421Z,21.42
2018-06-14T04:36:13.660Z,21.44
2018-06-14T04:36:44.925Z,21.44
2018-06-14T04:37:16.104Z,21.45
2018-06-14T04:37:47.369Z,21.44
2018-06-14T04:38:18.550Z,21.44
2018-06-14T04:38:49.713Z,21.44
2018-06-14T04:39:20.908Z,21.44
2018-06-14T04:39:53.004Z,21.43
2018-06-14T04:40:24.178Z,21.45
2018-06-14T04:40:55.417Z,21.47
2018-06-14T04:41:26.600Z,21.48
2018-06-14T04:41:57.869Z,21.48
2018-06-14T04:42:29.037Z,21.47
2018-06-14T04:43:00.328Z,21.45
2018-06-14T04:43:31.556Z,21.41
2018-06-14T04:44:02.737Z,21.40
2018-06-14T04:44:33.908Z,21.42
2018-06-14T04:45:05.089Z,21.41
2018-06-14T04:45:36.327Z,21.40
2018-06-14T04:46:07.521Z,21.41
2018-06-14T04:46:38.694Z,21.45
2018-06-14T04:47:09.856Z,21.45
2018-06-14T04:47:41.034Z,21.46
2018-06-14T04:48:12.254Z,21.47
2018-06-14T04:48:43.521Z,21.50
2018-06-14T04:49:14.800Z,21.52
2018-06-14T04:49:46.041Z,21.52
2018-06-14T04:50:17.271Z,21.51
2018-06-14T04:50:48.452Z,21.49
2018-06-14T04:51:19.621Z,21.50
2018-06-14T04:51:50.806Z,21.49
2018-06-14T04:52:22.068Z,21.50
2018-06-14T04:52:53.353Z,21.50
2018-06-14T04:53:24.574Z,21.54
2018-06-14T04:53:55.804Z,21.55
2018-06-14T04:54:27.051Z,21.53
2018-06-14T04:54:58.236Z,21.55
2018-06-14T04:55:29.468Z,21.58
2018-06-14T04:56:00.705Z,21.60
2018-06-14T04:56:31.886Z,21.62
2018-06-14T04:57:03.122Z,21.63
2018-06-14T04:57:34.317Z,21.68
2018-06-14T04:58:05.555Z,21.74
2018-06-14T04:58:36.737Z,21.78
2018-06-14T04:59:07.965Z,21.84
2018-06-14T04:59:39.211Z,21.91
2018-06-14T05:00:10.405Z,21.96
2018-06-14T05:00:41.669Z,22.02
2018-06-14T05:01:12.844Z,22.06
2018-06-14T05:01:44.026Z,22.10
2018-06-14T05:02:15.209Z,22.11
2018-06-14T05:02:46.378Z,22.13
2018-06-14T05:03:17.647Z,22.14
2018-06-14T05:03:48.841Z,22.17
2018-06-14T05:04:20.068Z,22.21
2018-06-14T05:04:51.342Z,22.23
2018-06-14T05:05:22.581Z,22.26
2018-06-14T05:05:53.768Z,22.26
2018-06-14T05:06:24.982Z,22.33
2018-06-14T05:06:56.206Z,22.35
2018-06-14T05:07:27.416Z,22.39
2018-06-14T05:07:58.656Z,22.44
2018-06-14T05:08:29.901Z,22.48
2018-06-14T05:09:01.133Z,22.52
2018-06-14T05:09:32.366Z,22.53
2018-06-14T05:10:03.560Z,22.56
2018-06-14T05:10:34.744Z,22.60
2018-06-14T05:11:06.001Z,22.67
2018-06-14T05:11:37.312Z,22.73
2018-06-14T05:12:08.493Z,22.79
2018-06-14T05:12:39.733Z,22.90
2018-06-14T05:13:10.911Z,23.01
2018-06-14T05:13:42.096Z,23.14
2018-06-14T05:14:13.328Z,23.25
2018-06-14T05:14:44.521Z,23.32
2018-06-14T05:15:15.745Z,23.36
2018-06-14T05:15:46.942Z,23.41
2018-06-14T05:16:18.117Z,23.46
2018-06-14T05:16:49.389Z,23.49
2018-06-14T05:17:20.622Z,23.52
2018-06-14T05:17:51.820Z,23.57
2018-06-14T05:18:22.989Z,23.63
2018-06-14T05:18:54.216Z,23.66
2018-06-14T05:19:25.452Z,23.69
2018-06-14T05:19:56.738Z,23.72
2018-06-14T05:20:27.933Z,23.76
2018-06-14T05:20:59.107Z,23.79
2018-06-14T05:21:30.276Z,23.79
2018-06-14T05:22:01.457Z,23.84
2018-06-14T05:22:32.634Z,23.90
2018-06-14T05:23:03.879Z,23.96
2018-06-14T05:23:35.081Z,24.01
2018-06-14T05:24:06.309Z,24.04
2018-06-14T05:24:37.489Z,24.13
2018-06-14T05:25:08.668Z,24.20
2018-06-14T05:25:39.841Z,24.28
2018-06-14T05:26:11.025Z,24.30
2018-06-14T05:26:42.218Z,24.37
2018-06-14T05:27:13.401Z,24.44
2018-06-14T05:27:44.636Z,24.50
2018-06-14T05:28:15.838Z,24.55
2018-06-14T05:28:47.690Z,24.63
2018-06-14T05:29:18.949Z,24.70
2018-06-14T05:29:50.141Z,24.78
2018-06-14T05:30:21.380Z,24.86
2018-06-14T05:30:52.612Z,24.93
2018-06-14T05:31:23.890Z,25.01
2018-06-14T05:31:55.072Z,25.05
2018-06-14T05:32:26.238Z,25.10
2018-06-14T05:32:57.589Z,25.20
2018-06-14T05:33:28.796Z,25.29
2018-06-14T05:34:00.004Z,25.39
2018-06-14T05:34:31.246Z,25.46
2018-06-14T05:35:02.432Z,25.59
2018-06-14T05:35:33.654Z,25.72
2018-06-14T05:36:04.882Z,25.86
2018-06-14T05:36:36.225Z,25.96
2018-06-14T05:37:07.459Z,26.08
2018-06-14T05:37:38.652Z,26.12
2018-06-14T05:38:09.951Z,25.99
2018-06-14T05:38:41.149Z,25.95
2018-06-14T05:39:12.334Z,25.93
2018-06-14T05:39:43.560Z,25.88
2018-06-14T05:40:14.806Z,25.81
2018-06-14T05:40:46.022Z,25.78
2018-06-14T05:41:17.224Z,25.77
2018-06-14T05:41:48.410Z,25.81
2018-06-14T05:42:19.596Z,25.85
2018-06-14T05:42:50.878Z,25.93
2018-06-14T05:43:22.130Z,25.98
2018-06-14T05:43:53.365Z,25.96
2018-06-14T05:44:24.595Z,25.98
2018-06-14T05:44:55.777Z,25.99
2018-06-14T05:45:26.964Z,25.91
2018-06-14T05:45:58.172Z,25.90
2018-06-14T05:46:29.353Z,25.91
2018-06-14T05:47:00.541Z,25.95
2018-06-14T05:47:31.741Z,25.99
2018-06-14T05:48:02.925Z,25.97
2018-06-14T05:48:34.173Z,25.97
2018-06-14T05:49:05.409Z,25.97
2018-06-14T05:49:36.604Z,25.93
2018-06-14T05:50:07.781Z,25.90
2018-06-14T05:50:39.032Z,25.88
2018-06-14T05:51:10.312Z,25.86
2018-06-14T05:51:41.556Z,25.87
2018-06-14T05:52:12.746Z,25.88
2018-06-14T05:52:43.933Z,25.90
2018-06-14T05:53:15.325Z,25.91
2018-06-14T05:53:46.577Z,25.99
2018-06-14T05:54:17.761Z,26.04
2018-06-14T05:54:48.934Z,26.07
2018-06-14T05:55:20.121Z,26.09
2018-06-14T05:55:51.633Z,26.10
2018-06-14T05:56:24.460Z,26.10
2018-06-14T05:56:55.640Z,26.13
2018-06-14T05:57:26.873Z,26.17
2018-06-14T05:57:58.050Z,26.29
2018-06-14T05:58:29.286Z,26.33
2018-06-14T05:59:00.485Z,26.35
2018-06-14T05:59:31.726Z,26.34
2018-06-14T06:00:02.913Z,26.19
2018-06-14T06:00:34.146Z,26.27
2018-06-14T06:01:05.462Z,26.26
2018-06-14T06:01:36.677Z,26.30
2018-06-14T06:02:07.901Z,26.29
2018-06-14T06:02:39.124Z,26.24
2018-06-14T06:03:10.309Z,26.28
2018-06-14T06:03:41.532Z,26.24
2018-06-14T06:04:12.821Z,26.22
2018-06-14T06:04:44.009Z,26.20
2018-06-14T06:05:15.577Z,26.17
2018-06-14T06:05:46.830Z,26.15
2018-06-14T06:06:19.285Z,26.20
2018-06-14T06:06:50.521Z,26.24
2018-06-14T06:07:21.762Z,26.25
2018-06-14T06:07:52.961Z,26.27
2018-06-14T06:08:24.217Z,26.29
2018-06-14T06:08:55.518Z,26.34
2018-06-14T06:09:26.739Z,26.38
2018-06-14T06:09:57.921Z,26.39
2018-06-14T06:10:29.097Z,26.41
2018-06-14T06:11:00.348Z,26.31
2018-06-14T06:11:31.590Z,26.39
2018-06-14T06:12:03.377Z,26.36
2018-06-14T06:12:34.560Z,26.39
2018-06-14T06:13:05.792Z,26.38
2018-06-14T06:13:36.976Z,26.39
2018-06-14T06:14:08.179Z,26.50
2018-06-14T06:14:39.426Z,26.51
2018-06-14T06:17:49.110Z,26.51
2018-06-14T06:18:20.286Z,26.46
2018-06-14T06:18:51.603Z,26.40
2018-06-14T06:19:22.860Z,26.45
2018-06-14T06:19:54.161Z,26.39
2018-06-14T06:20:25.374Z,26.38
2018-06-14T06:20:56.552Z,26.26
2018-06-14T06:21:27.762Z,26.38
2018-06-14T06:21:58.950Z,26.38
2018-06-14T06:22:30.124Z,26.44
2018-06-14T06:23:01.350Z,26.45
2018-06-14T06:23:32.623Z,26.48
2018-06-14T06:24:03.809Z,26.56
2018-06-14T06:24:35.110Z,26.63
2018-06-14T06:25:06.344Z,26.69
2018-06-14T06:25:37.532Z,26.72
2018-06-14T06:26:08.733Z,26.73
2018-06-14T06:26:39.961Z,26.81
2018-06-14T06:27:11.186Z,26.87
2018-06-14T06:27:42.388Z,26.99
2018-06-14T06:28:13.569Z,27.09
2018-06-14T06:28:44.806Z,27.21
2018-06-14T06:29:15.996Z,27.25
2018-06-14T06:29:47.188Z,27.31
2018-06-14T06:30:18.481Z,27.31
2018-06-14T06:30:49.725Z,27.33
2018-06-14T06:31:20.964Z,27.31
2018-06-14T06:31:52.151Z,27.35
2018-06-14T06:32:23.386Z,27.37
2018-06-14T06:32:54.638Z,27.43
2018-06-14T06:33:25.944Z,27.41
2018-06-14T06:33:57.113Z,27.27
2018-06-14T06:34:28.311Z,27.24
2018-06-14T06:34:59.541Z,27.17
2018-06-14T06:35:30.720Z,27.15
2018-06-14T06:36:01.953Z,27.11
2018-06-14T06:36:33.154Z,27.08
2018-06-14T06:37:04.331Z,27.01
2018-06-14T06:37:35.570Z,26.98
2018-06-14T06:38:06.759Z,26.95
2018-06-14T06:38:37.966Z,26.99
2018-06-14T06:39:09.149Z,26.99
2018-06-14T06:39:40.409Z,27.03
2018-06-14T06:40:11.714Z,27.05
2018-06-14T06:40:43.005Z,27.09
2018-06-14T06:41:14.258Z,27.14
2018-06-14T06:41:45.461Z,27.10
2018-06-14T06:42:16.640Z,27.10
2018-06-14T06:42:47.832Z,27.15
2018-06-14T06:43:19.033Z,27.15
2018-06-14T06:43:50.268Z,27.16
2018-06-14T06:44:21.501Z,27.17
2018-06-14T06:44:52.953Z,27.17
2018-06-14T06:45:27.942Z,27.19
2018-06-14T06:45:59.238Z,27.21